createdAt,value
2022-11-07T00:01:23.959Z,72.69
2022-11-07T00:04:31.301Z,72.66
2022-11-07T00:07:34.362Z,72.58
2022-11-07T00:10:37.328Z,72.69
2022-11-07T00:13:40.312Z,72.82
2022-11-07T00:16:44.869Z,72.67
2022-11-07T00:19:49.337Z,72.77
2022-11-07T00:22:52.309Z,73.02
2022-11-07T00:26:00.768Z,72.92
2022-11-07T00:29:06.517Z,72.87
2022-11-07T00:32:09.501Z,72.73
2022-11-07T00:35:12.421Z,72.87
2022-11-07T00:38:15.564Z,72.93
2022-11-07T00:41:19.302Z,72.99
2022-11-07T00:44:22.854Z,72.81
2022-11-07T00:47:25.820Z,73.08
2022-11-07T00:50:28.754Z,72.93
2022-11-07T00:53:31.686Z,73.02
2022-11-07T00:56:34.676Z,72.87
2022-11-07T00:59:37.551Z,73.00
2022-11-07T01:02:40.541Z,72.97
2022-11-07T01:05:43.568Z,72.97
2022-11-07T01:08:46.567Z,72.91
2022-11-07T01:11:49.980Z,72.92
2022-11-07T01:14:52.893Z,72.97
2022-11-07T01:17:55.884Z,73.01
2022-11-07T01:20:58.902Z,73.03
2022-11-07T01:24:03.603Z,73.09
2022-11-07T01:27:06.603Z,73.27
2022-11-07T01:30:10.121Z,73.09
2022-11-07T01:33:13.644Z,73.24
2022-11-07T01:36:17.981Z,73.22
2022-11-07T01:39:20.877Z,73.19
2022-11-07T01:42:24.463Z,73.25
2022-11-07T01:45:29.879Z,73.19
2022-11-07T01:48:33.053Z,73.25
2022-11-07T01:51:41.721Z,73.33
2022-11-07T01:54:55.088Z,73.28
2022-11-07T01:58:03.186Z,73.26
2022-11-07T02:01:06.087Z,73.29
2022-11-07T02:04:10.518Z,73.36
2022-11-07T02:07:18.812Z,73.39
2022-11-07T02:10:21.890Z,73.40
2022-11-07T02:13:28.102Z,73.41
2022-11-07T02:16:32.844Z,73.35
2022-11-07T02:19:49.890Z,73.42
2022-11-07T02:22:57.218Z,73.38
2022-11-07T02:26:00.361Z,73.35
2022-11-07T02:29:09.478Z,73.29
2022-11-07T02:32:12.867Z,73.40
2022-11-07T02:35:46.626Z,73.54
2022-11-07T02:38:57.507Z,73.57
2022-11-07T02:42:02.583Z,73.46
2022-11-07T02:45:06.351Z,73.52
2022-11-07T02:48:09.584Z,73.51
2022-11-07T02:51:13.211Z,73.58
2022-11-07T02:54:16.184Z,73.50
2022-11-07T02:57:19.119Z,73.64
2022-11-07T03:00:22.151Z,73.52
2022-11-07T03:03:25.109Z,73.72
2022-11-07T03:06:28.364Z,73.62
2022-11-07T03:09:31.495Z,73.72
2022-11-07T03:12:34.606Z,73.73
2022-11-07T03:15:37.534Z,73.62
2022-11-07T03:18:40.619Z,73.65
2022-11-07T03:21:43.577Z,73.59
2022-11-07T03:24:46.561Z,73.77
2022-11-07T03:27:50.417Z,73.62
2022-11-07T03:30:53.731Z,73.74
2022-11-07T03:33:56.821Z,73.67
2022-11-07T03:36:59.772Z,73.82
2022-11-07T03:40:02.836Z,73.73
2022-11-07T03:43:05.856Z,73.69
2022-11-07T03:46:08.792Z,73.76
2022-11-07T03:49:11.715Z,73.58
2022-11-07T03:52:14.641Z,73.43
2022-11-07T03:55:18.374Z,73.45
2022-11-07T03:58:21.789Z,73.38
2022-11-07T04:01:24.857Z,73.32
2022-11-07T04:04:28.069Z,73.42
2022-11-07T04:07:31.069Z,73.42
2022-11-07T04:10:34.055Z,73.19
2022-11-07T04:13:55.860Z,73.27
2022-11-07T04:17:17.459Z,72.88
2022-11-07T04:20:20.577Z,73.01
2022-11-07T04:23:23.541Z,73.00
2022-11-07T04:26:45.070Z,73.00
2022-11-07T04:29:48.039Z,73.14
2022-11-07T04:32:56.904Z,73.25
2022-11-07T04:35:59.953Z,73.26
2022-11-07T04:39:03.038Z,73.33
2022-11-07T04:42:05.998Z,73.40
2022-11-07T04:45:09.595Z,73.41
2022-11-07T04:48:12.942Z,73.38
2022-11-07T04:51:20.638Z,73.32
2022-11-07T04:54:23.745Z,73.28
2022-11-07T04:57:26.695Z,73.28
2022-11-07T05:00:29.665Z,73.32
2022-11-07T05:03:36.218Z,73.05
2022-11-07T05:06:42.105Z,73.13
2022-11-07T05:09:45.081Z,73.24
2022-11-07T05:12:48.134Z,73.37
2022-11-07T05:15:51.228Z,73.26
2022-11-07T05:18:54.192Z,73.19
2022-11-07T05:22:15.318Z,73.16
2022-11-07T05:25:18.315Z,73.48
2022-11-07T05:28:30.302Z,73.49
2022-11-07T05:31:38.453Z,73.50
2022-11-07T05:34:41.486Z,73.63
2022-11-07T05:37:44.445Z,73.63
2022-11-07T05:40:47.431Z,73.83
2022-11-07T05:43:50.385Z,73.87
2022-11-07T05:46:53.250Z,74.00
2022-11-07T05:49:56.205Z,73.95
2022-11-07T05:52:59.379Z,74.01
2022-11-07T05:56:02.423Z,74.06
2022-11-07T05:59:05.388Z,74.05
2022-11-07T06:02:08.420Z,74.08
2022-11-07T06:05:12.328Z,74.12
2022-11-07T06:08:15.784Z,74.12
2022-11-07T06:11:18.796Z,74.14
2022-11-07T06:14:21.690Z,74.09
2022-11-07T06:17:24.679Z,73.99
2022-11-07T06:20:27.964Z,73.83
2022-11-07T06:23:30.857Z,73.78
2022-11-07T06:26:33.785Z,73.76
2022-11-07T06:29:36.685Z,73.68
2022-11-07T06:32:45.346Z,73.62
2022-11-07T06:35:48.473Z,73.48
2022-11-07T06:38:55.069Z,73.56
2022-11-07T06:41:57.950Z,73.44
2022-11-07T06:45:00.846Z,73.43
2022-11-07T06:48:04.537Z,73.29
2022-11-07T06:51:10.042Z,73.15
2022-11-07T06:54:13.392Z,73.26
2022-11-07T06:57:16.536Z,73.17
2022-11-07T07:00:19.626Z,73.20
2022-11-07T07:03:22.514Z,73.19
2022-11-07T07:06:25.512Z,73.08
2022-11-07T07:09:28.507Z,73.04
2022-11-07T07:12:31.457Z,73.16
2022-11-07T07:15:49.387Z,73.15
2022-11-07T07:18:53.626Z,72.80
2022-11-07T07:21:56.808Z,72.94
2022-11-07T07:24:59.768Z,72.73
2022-11-07T07:28:02.642Z,72.68
2022-11-07T07:31:14.589Z,72.69
2022-11-07T07:34:17.557Z,72.63
2022-11-07T07:37:20.504Z,72.43
2022-11-07T07:40:23.495Z,72.36
2022-11-07T07:43:27.855Z,72.27
2022-11-07T07:46:30.830Z,72.20
2022-11-07T07:49:33.845Z,72.14
2022-11-07T07:52:37.746Z,71.92
2022-11-07T07:55:41.759Z,71.97
2022-11-07T07:58:45.762Z,71.76
2022-11-07T08:01:53.555Z,71.60
2022-11-07T08:04:59.834Z,71.48
2022-11-07T08:08:02.856Z,71.45
2022-11-07T08:11:08.644Z,71.12
2022-11-07T08:14:11.912Z,71.05
2022-11-07T08:17:14.904Z,70.86
2022-11-07T08:20:24.615Z,70.92
2022-11-07T08:23:27.758Z,70.66
2022-11-07T08:26:31.461Z,70.56
2022-11-07T08:29:34.503Z,70.31
2022-11-07T08:32:37.543Z,70.29
2022-11-07T08:35:42.731Z,69.97
2022-11-07T08:38:46.009Z,69.94
2022-11-07T08:41:49.055Z,69.85
2022-11-07T08:44:52.187Z,69.93
2022-11-07T08:47:59.347Z,69.63
2022-11-07T08:51:05.200Z,69.46
2022-11-07T08:54:08.229Z,69.48
2022-11-07T08:57:11.668Z,69.43
2022-11-07T09:00:14.861Z,69.28
2022-11-07T09:03:39.128Z,69.33
2022-11-07T09:06:42.451Z,69.15
2022-11-07T09:09:45.460Z,69.06
2022-11-07T09:12:49.816Z,68.85
2022-11-07T09:15:59.408Z,68.81
2022-11-07T09:19:04.834Z,68.62
2022-11-07T09:22:07.968Z,68.68
2022-11-07T09:25:11.537Z,68.69
2022-11-07T09:28:15.197Z,68.61
2022-11-07T09:31:20.549Z,68.38
2022-11-07T09:34:23.552Z,67.98
2022-11-07T09:37:26.611Z,67.98
2022-11-07T09:40:52.697Z,68.01
2022-11-07T09:44:11.080Z,68.00
2022-11-07T09:47:29.451Z,67.96
2022-11-07T09:50:39.208Z,67.77
2022-11-07T09:53:47.372Z,67.83
2022-11-07T09:56:51.195Z,67.74
2022-11-07T09:59:57.785Z,67.63
2022-11-07T10:03:02.270Z,67.56
2022-11-07T10:06:27.302Z,67.45
2022-11-07T10:09:57.517Z,67.15
2022-11-07T10:13:34.825Z,67.06
2022-11-07T10:17:09.021Z,66.95
2022-11-07T10:20:30.320Z,66.89
2022-11-07T10:23:52.333Z,66.88
2022-11-07T10:26:56.665Z,66.78
2022-11-07T10:30:01.525Z,66.77
2022-11-07T10:33:20.979Z,66.78
2022-11-07T10:36:30.128Z,66.64
2022-11-07T10:39:33.147Z,66.60
2022-11-07T10:42:36.135Z,66.46
2022-11-07T10:45:40.112Z,66.25
2022-11-07T10:48:53.423Z,66.04
2022-11-07T10:52:16.911Z,65.87
2022-11-07T10:55:20.751Z,65.57
2022-11-07T10:58:35.886Z,65.58
2022-11-07T11:01:39.007Z,65.24
2022-11-07T11:04:50.894Z,65.10
2022-11-07T11:07:56.850Z,64.95
2022-11-07T11:11:00.006Z,64.68
2022-11-07T11:14:09.181Z,64.48
2022-11-07T11:17:26.500Z,64.22
2022-11-07T11:20:44.164Z,63.92
2022-11-07T11:23:48.357Z,63.54
2022-11-07T11:26:53.823Z,63.58
2022-11-07T11:29:57.103Z,63.31
2022-11-07T11:33:09.005Z,63.25
2022-11-07T11:36:23.387Z,62.92
2022-11-07T11:39:39.290Z,62.76
2022-11-07T11:43:00.011Z,62.42
2022-11-07T11:46:36.798Z,62.18
2022-11-07T11:49:59.441Z,61.92
2022-11-07T11:53:02.459Z,61.85
2022-11-07T11:56:09.160Z,61.80
2022-11-07T11:59:30.772Z,61.66
2022-11-07T12:02:48.429Z,61.40
2022-11-07T12:06:13.935Z,61.39
2022-11-07T12:09:33.132Z,61.28
2022-11-07T12:13:10.001Z,61.13
2022-11-07T12:16:31.167Z,61.07
2022-11-07T12:19:38.956Z,60.96
2022-11-07T12:22:53.078Z,60.84
2022-11-07T12:26:14.770Z,60.75
2022-11-07T12:29:34.942Z,60.61
2022-11-07T12:32:45.554Z,60.42
2022-11-07T12:36:00.431Z,60.41
2022-11-07T12:39:37.968Z,60.55
2022-11-07T12:43:13.793Z,60.49
2022-11-07T12:46:27.064Z,60.57
2022-11-07T12:50:04.353Z,60.65
2022-11-07T12:53:13.686Z,60.56
2022-11-07T12:56:23.339Z,60.62
2022-11-07T12:59:29.790Z,60.70
2022-11-07T13:02:53.923Z,60.72
2022-11-07T13:06:09.898Z,60.84
2022-11-07T13:09:31.427Z,60.97
2022-11-07T13:12:41.235Z,60.94
2022-11-07T13:16:13.396Z,60.97
2022-11-07T13:19:21.126Z,60.98
2022-11-07T13:22:32.682Z,61.11
2022-11-07T13:25:35.958Z,61.20
2022-11-07T13:28:40.254Z,61.19
2022-11-07T13:31:45.607Z,61.12
2022-11-07T13:35:07.183Z,61.20
2022-11-07T13:38:20.291Z,61.31
2022-11-07T13:41:25.097Z,61.38
2022-11-07T13:44:32.886Z,61.47
2022-11-07T13:47:40.775Z,61.51
2022-11-07T13:50:50.567Z,61.59
2022-11-07T13:54:04.833Z,61.65
2022-11-07T13:57:20.765Z,61.72
2022-11-07T14:00:23.940Z,61.77
2022-11-07T14:03:28.073Z,61.81
2022-11-07T14:06:32.113Z,61.91
2022-11-07T14:09:35.309Z,62.08
2022-11-07T14:12:40.023Z,62.09
2022-11-07T14:15:55.903Z,62.03
2022-11-07T14:19:07.110Z,62.08
2022-11-07T14:22:25.585Z,62.02
2022-11-07T14:25:33.546Z,61.94
2022-11-07T14:28:40.496Z,62.19
2022-11-07T14:31:45.448Z,62.20
2022-11-07T14:34:50.456Z,62.23
2022-11-07T14:37:54.214Z,62.30
2022-11-07T14:41:01.419Z,62.32
2022-11-07T14:44:12.766Z,62.52
2022-11-07T14:47:22.013Z,62.46
2022-11-07T14:50:28.038Z,62.67
2022-11-07T14:53:37.612Z,62.74
2022-11-07T14:56:45.605Z,62.67
2022-11-07T14:59:48.945Z,62.68
2022-11-07T15:02:55.393Z,62.63
2022-11-07T15:05:59.067Z,62.55
2022-11-07T15:09:05.627Z,62.59
2022-11-07T15:12:17.560Z,62.63
2022-11-07T15:15:35.654Z,62.62
2022-11-07T15:18:42.945Z,62.71
2022-11-07T15:21:58.069Z,62.62
2022-11-07T15:25:01.280Z,62.65
2022-11-07T15:28:19.942Z,62.66
2022-11-07T15:31:29.474Z,62.66
2022-11-07T15:34:58.291Z,62.80
2022-11-07T15:38:00.956Z,62.66
2022-11-07T15:41:04.161Z,62.76
2022-11-07T15:44:07.184Z,62.65
2022-11-07T15:47:19.288Z,62.69
2022-11-07T15:50:24.805Z,62.71
2022-11-07T15:53:29.433Z,62.82
2022-11-07T15:56:32.391Z,62.77
2022-11-07T15:59:37.144Z,62.82
2022-11-07T16:02:42.360Z,62.88
2022-11-07T16:05:47.342Z,62.89
2022-11-07T16:08:50.345Z,62.97
2022-11-07T16:11:53.323Z,63.02
2022-11-07T16:14:59.298Z,62.96
2022-11-07T16:18:02.828Z,63.03
2022-11-07T16:21:06.206Z,63.14
2022-11-07T16:24:09.444Z,63.17
2022-11-07T16:27:18.452Z,63.37
2022-11-07T16:30:22.236Z,63.15
2022-11-07T16:33:26.155Z,63.36
2022-11-07T16:36:32.395Z,63.37
2022-11-07T16:39:35.342Z,63.36
2022-11-07T16:42:38.359Z,63.57
2022-11-07T16:45:55.262Z,63.56
2022-11-07T16:49:12.655Z,63.60
2022-11-07T16:52:18.282Z,63.83
2022-11-07T16:55:21.163Z,63.84
2022-11-07T16:58:30.349Z,63.81
2022-11-07T17:01:34.277Z,63.88
2022-11-07T17:04:37.950Z,63.93
2022-11-07T17:07:41.025Z,64.04
2022-11-07T17:10:45.552Z,63.96
2022-11-07T17:13:48.524Z,64.03
2022-11-07T17:16:51.504Z,64.02
2022-11-07T17:19:54.480Z,64.11
2022-11-07T17:22:57.926Z,64.14
2022-11-07T17:26:02.586Z,64.17
2022-11-07T17:29:08.374Z,64.33
2022-11-07T17:32:11.260Z,64.19
2022-11-07T17:38:37.425Z,64.49
2022-11-07T17:41:40.983Z,64.61
2022-11-07T17:44:43.960Z,64.51
2022-11-07T17:47:46.923Z,64.42
2022-11-07T17:50:49.854Z,64.48
2022-11-07T17:53:53.907Z,64.45
2022-11-07T17:56:56.852Z,64.72
2022-11-07T18:00:00.062Z,64.62
2022-11-07T18:03:03.251Z,64.55
2022-11-07T18:06:06.490Z,64.64
2022-11-07T18:09:17.225Z,64.53
2022-11-07T18:12:20.121Z,64.63
2022-11-07T18:15:23.030Z,64.69
2022-11-07T18:18:27.166Z,64.76
2022-11-07T18:21:33.297Z,64.48
2022-11-07T18:24:36.319Z,64.69
2022-11-07T18:27:39.327Z,64.79
2022-11-07T18:30:42.354Z,64.74
2022-11-07T18:34:28.988Z,64.83
2022-11-07T18:37:40.749Z,64.80
2022-11-07T18:41:02.965Z,65.26
2022-11-07T18:44:23.153Z,65.11
2022-11-07T18:47:26.396Z,65.15
2022-11-07T18:50:29.496Z,65.08
2022-11-07T18:53:32.674Z,65.03
2022-11-07T18:56:35.737Z,65.06
2022-11-07T18:59:39.649Z,65.04
2022-11-07T19:02:42.627Z,65.14
2022-11-07T19:05:45.597Z,65.19
2022-11-07T19:08:49.252Z,65.21
2022-11-07T19:11:52.405Z,65.37
2022-11-07T19:14:55.567Z,65.46
2022-11-07T19:17:58.569Z,65.31
2022-11-07T19:24:35.381Z,65.34
2022-11-07T19:27:38.474Z,65.42
2022-11-07T19:30:47.395Z,65.44
2022-11-07T19:33:50.520Z,65.54
2022-11-07T19:36:53.793Z,65.56
2022-11-07T19:39:56.890Z,65.44
2022-11-07T19:43:01.540Z,65.58
2022-11-07T19:46:11.311Z,65.52
2022-11-07T19:49:14.288Z,65.76
2022-11-07T19:52:17.294Z,65.78
2022-11-07T19:55:20.343Z,65.78
2022-11-07T19:58:23.265Z,65.75
2022-11-07T20:01:29.781Z,65.92
2022-11-07T20:04:32.809Z,65.75
2022-11-07T20:07:35.959Z,65.80
2022-11-07T20:10:45.744Z,65.85
2022-11-07T20:13:48.862Z,65.83
2022-11-07T20:16:52.129Z,65.80
2022-11-07T20:19:55.192Z,66.05
2022-11-07T20:23:00.315Z,65.95
2022-11-07T20:26:15.037Z,66.02
2022-11-07T20:29:19.223Z,66.09
2022-11-07T20:32:22.348Z,66.01
2022-11-07T20:35:25.338Z,66.04
2022-11-07T20:38:29.679Z,66.05
2022-11-07T20:41:33.441Z,66.04
2022-11-07T20:44:36.431Z,66.04
2022-11-07T20:47:40.281Z,66.18
2022-11-07T20:50:43.393Z,66.29
2022-11-07T20:53:50.411Z,66.32
2022-11-07T20:56:53.797Z,66.28
2022-11-07T20:59:56.763Z,66.26
2022-11-07T21:02:59.833Z,66.47
2022-11-07T21:06:03.616Z,66.34
2022-11-07T21:09:07.472Z,66.50
2022-11-07T21:12:11.378Z,66.36
2022-11-07T21:15:14.487Z,66.36
2022-11-07T21:18:17.735Z,66.43
2022-11-07T21:21:23.679Z,66.48
2022-11-07T21:24:30.736Z,66.27
2022-11-07T21:27:36.345Z,66.43
2022-11-07T21:30:39.785Z,66.46
2022-11-07T21:33:42.881Z,66.62
2022-11-07T21:36:45.809Z,66.50
2022-11-07T21:39:48.832Z,66.55
2022-11-07T21:42:54.982Z,66.58
2022-11-07T21:46:19.292Z,66.48
2022-11-07T21:49:22.364Z,66.74
2022-11-07T21:52:25.507Z,66.78
2022-11-07T21:55:28.411Z,66.76
2022-11-07T21:58:31.432Z,66.73
2022-11-07T22:01:37.147Z,66.89
2022-11-07T22:04:42.949Z,66.85
2022-11-07T22:07:46.023Z,67.01
2022-11-07T22:10:49.126Z,66.97
2022-11-07T22:13:52.128Z,66.91
2022-11-07T22:16:55.917Z,66.84
2022-11-07T22:19:58.988Z,66.94
2022-11-07T22:23:02.064Z,67.19
2022-11-07T22:26:15.412Z,67.11
2022-11-07T22:29:18.975Z,67.06
2022-11-07T22:32:22.231Z,66.93
2022-11-07T22:35:25.393Z,67.05
2022-11-07T22:38:28.537Z,67.23
2022-11-07T22:41:31.789Z,67.08
2022-11-07T22:44:34.810Z,67.11
2022-11-07T22:47:37.899Z,67.05
2022-11-07T22:50:43.243Z,66.99
2022-11-07T22:53:46.403Z,67.30
2022-11-07T22:56:49.509Z,67.18
2022-11-07T22:59:53.503Z,67.31
2022-11-07T23:02:57.048Z,67.38
2022-11-07T23:06:04.712Z,67.52
2022-11-07T23:09:07.958Z,67.52
2022-11-07T23:12:11.035Z,67.42
2022-11-07T23:15:14.160Z,67.49
2022-11-07T23:18:17.377Z,67.43
2022-11-07T23:21:20.921Z,67.48
2022-11-07T23:24:24.232Z,67.51
2022-11-07T23:27:31.036Z,67.51
2022-11-07T23:30:37.996Z,67.76
2022-11-07T23:33:41.182Z,67.56
2022-11-07T23:36:44.974Z,67.72
2022-11-07T23:39:48.152Z,67.69
2022-11-07T23:42:51.192Z,67.67
2022-11-07T23:46:14.711Z,67.76
2022-11-07T23:49:36.198Z,67.67
2022-11-07T23:52:39.204Z,67.70
2022-11-07T23:55:42.458Z,67.70
2022-11-07T23:59:04.687Z,67.68
